createdAt,value
2022-09-10T00:02:01.840Z,95683.19
2022-09-10T00:04:28.774Z,95685.75
2022-09-10T00:06:56.373Z,95687.53
2022-09-10T00:09:23.126Z,95678.22
2022-09-10T00:11:49.880Z,95677.66
2022-09-10T00:14:19.980Z,95668.34
2022-09-10T00:16:46.823Z,95679.78
2022-09-10T00:19:14.659Z,95676.03
2022-09-10T00:21:41.235Z,95671.38
2022-09-10T00:24:08.449Z,95668.34
2022-09-10T00:26:39.950Z,95666.28
2022-09-10T00:29:09.455Z,95665.38
2022-09-10T00:31:37.273Z,95659.13
2022-09-10T00:34:05.791Z,95661.53
2022-09-10T00:36:36.178Z,95667.09
2022-09-10T00:39:10.265Z,95657.84
2022-09-10T00:41:39.869Z,95656.66
2022-09-10T00:44:37.556Z,95660.59
2022-09-10T00:47:06.319Z,95662.81
2022-09-10T00:49:38.733Z,95660.38
2022-09-10T00:52:07.694Z,95657.66
2022-09-10T00:54:36.095Z,95653.94
2022-09-10T00:57:13.106Z,95653.44
2022-09-10T00:59:47.808Z,95645.66
2022-09-10T01:02:14.915Z,95642.34
2022-09-10T01:04:43.060Z,95650.09
2022-09-10T01:07:11.352Z,95641.56
2022-09-10T01:09:40.238Z,95651.44
2022-09-10T01:12:27.113Z,95651.94
2022-09-10T01:15:08.530Z,95644.53
2022-09-10T01:17:45.096Z,95645.66
2022-09-10T01:20:40.980Z,95645.47
2022-09-10T01:23:41.542Z,95655.09
2022-09-10T01:26:31.942Z,95657.09
2022-09-10T01:29:16.241Z,95656.47
2022-09-10T01:31:55.545Z,95659.66
2022-09-10T01:34:32.746Z,95653.13
2022-09-10T01:37:07.893Z,95650.56
2022-09-10T01:39:35.298Z,95652.31
2022-09-10T01:42:01.946Z,95645.22
2022-09-10T01:44:50.618Z,95657.31
2022-09-10T01:47:41.658Z,95654.44
2022-09-10T01:50:17.304Z,95655.03
2022-09-10T01:52:53.867Z,95648.09
2022-09-10T01:55:58.182Z,95654.75
2022-09-10T01:58:45.569Z,95654.69
2022-09-10T02:01:49.180Z,95649.88
2022-09-10T02:04:19.254Z,95657.09
2022-09-10T02:06:50.004Z,95652.56
2022-09-10T02:09:19.062Z,95651.97
2022-09-10T02:11:51.885Z,95653.84
2022-09-10T02:14:55.141Z,95645.16
2022-09-10T02:17:32.171Z,95654.34
2022-09-10T02:20:04.482Z,95650.28
2022-09-10T02:22:33.497Z,95647.75
2022-09-10T02:25:00.030Z,95649.78
2022-09-10T02:27:27.002Z,95644.88
2022-09-10T02:29:55.328Z,95647.34
2022-09-10T02:32:22.336Z,95653.75
2022-09-10T02:34:51.323Z,95646.31
2022-09-10T02:37:20.226Z,95656.47
2022-09-10T02:39:46.900Z,95660.53
2022-09-10T02:42:16.925Z,95648.19
2022-09-10T02:44:46.172Z,95659.19
2022-09-10T02:47:12.716Z,95644.47
2022-09-10T02:49:39.269Z,95651.25
2022-09-10T02:52:06.835Z,95647.47
2022-09-10T02:54:35.402Z,95643.38
2022-09-10T02:57:01.973Z,95654.94
2022-09-10T02:59:29.124Z,95648.50
2022-09-10T03:01:57.162Z,95645.72
2022-09-10T03:04:23.786Z,95642.09
2022-09-10T03:06:50.469Z,95647.22
2022-09-10T03:09:17.244Z,95650.13
2022-09-10T03:11:43.819Z,95647.69
2022-09-10T03:14:10.891Z,95645.78
2022-09-10T03:16:37.706Z,95644.78
2022-09-10T03:19:06.241Z,95639.03
2022-09-10T03:21:34.327Z,95646.31
2022-09-10T03:24:01.148Z,95647.34
2022-09-10T03:26:30.411Z,95637.50
2022-09-10T03:28:57.396Z,95636.50
2022-09-10T03:31:27.231Z,95637.09
2022-09-10T03:33:54.024Z,95637.66
2022-09-10T03:36:22.714Z,95639.22
2022-09-10T03:38:50.069Z,95630.06
2022-09-10T03:41:17.398Z,95639.03
2022-09-10T03:43:44.810Z,95639.72
2022-09-10T03:46:12.117Z,95635.16
2022-09-10T03:48:43.510Z,95636.50
2022-09-10T03:51:10.916Z,95639.47
2022-09-10T03:53:38.649Z,95634.78
2022-09-10T03:56:06.845Z,95642.63
2022-09-10T03:58:35.769Z,95642.09
2022-09-10T04:01:03.396Z,95644.38
2022-09-10T04:03:32.102Z,95641.94
2022-09-10T04:05:58.704Z,95640.06
2022-09-10T04:08:25.288Z,95640.72
2022-09-10T04:10:54.596Z,95641.72
2022-09-10T04:13:23.051Z,95641.34
2022-09-10T04:15:49.669Z,95636.28
2022-09-10T04:18:16.323Z,95644.06
2022-09-10T04:20:46.990Z,95637.88
2022-09-10T04:23:16.189Z,95631.25
2022-09-10T04:25:43.412Z,95628.19
2022-09-10T04:28:11.340Z,95643.78
2022-09-10T04:30:40.155Z,95645.81
2022-09-10T04:33:07.732Z,95641.06
2022-09-10T04:35:34.507Z,95644.47
2022-09-10T04:38:03.990Z,95646.59
2022-09-10T04:40:30.603Z,95641.16
2022-09-10T04:42:57.144Z,95634.28
2022-09-10T04:45:25.078Z,95641.59
2022-09-10T04:47:54.196Z,95644.06
2022-09-10T04:50:21.880Z,95645.28
2022-09-10T04:53:11.322Z,95647.91
2022-09-10T04:55:40.215Z,95650.13
2022-09-10T04:58:07.420Z,95654.56
2022-09-10T05:00:34.441Z,95655.59
2022-09-10T05:03:01.029Z,95656.25
2022-09-10T05:05:28.680Z,95661.53
2022-09-10T05:07:55.600Z,95655.38
2022-09-10T05:10:23.484Z,95659.28
2022-09-10T05:12:50.757Z,95663.34
2022-09-10T05:15:17.814Z,95653.06
2022-09-10T05:17:47.983Z,95658.88
2022-09-10T05:20:15.257Z,95665.59
2022-09-10T05:22:49.006Z,95663.75
2022-09-10T05:25:15.784Z,95667.94
2022-09-10T05:27:42.935Z,95667.50
2022-09-10T05:30:14.159Z,95665.44
2022-09-10T05:32:40.888Z,95662.09
2022-09-10T05:35:08.706Z,95665.88
2022-09-10T05:37:38.657Z,95670.28
2022-09-10T05:40:07.623Z,95671.34
2022-09-10T05:42:34.303Z,95669.28
2022-09-10T05:45:00.959Z,95668.22
2022-09-10T05:47:28.223Z,95666.69
2022-09-10T05:49:56.271Z,95661.28
2022-09-10T05:52:24.325Z,95668.22
2022-09-10T05:54:51.783Z,95665.59
2022-09-10T05:57:18.321Z,95667.69
2022-09-10T05:59:46.161Z,95668.16
2022-09-10T06:02:21.752Z,95671.66
2022-09-10T06:04:50.458Z,95673.75
2022-09-10T06:07:17.370Z,95675.75
2022-09-10T06:09:44.033Z,95677.66
2022-09-10T06:12:35.997Z,95682.25
2022-09-10T06:15:03.643Z,95682.66
2022-09-10T06:17:30.415Z,95685.44
2022-09-10T06:19:57.919Z,95698.16
2022-09-10T06:22:24.531Z,95689.66
2022-09-10T06:24:53.717Z,95690.03
2022-09-10T06:27:23.216Z,95704.91
2022-09-10T06:29:51.264Z,95702.00
2022-09-10T06:32:17.879Z,95706.84
2022-09-10T06:34:46.018Z,95701.34
2022-09-10T06:37:13.233Z,95713.22
2022-09-10T06:39:40.113Z,95707.78
2022-09-10T06:42:07.366Z,95710.28
2022-09-10T06:45:03.108Z,95719.75
2022-09-10T06:48:34.775Z,95725.28
2022-09-10T06:50:57.055Z,95726.47
2022-09-10T06:53:29.387Z,95729.94
2022-09-10T06:55:56.693Z,95729.59
2022-09-10T06:58:24.806Z,95722.56
2022-09-10T07:00:52.103Z,95730.19
2022-09-10T07:03:21.704Z,95735.09
2022-09-10T07:05:50.656Z,95734.47
2022-09-10T07:08:17.660Z,95741.66
2022-09-10T07:10:47.979Z,95733.84
2022-09-10T07:13:14.676Z,95732.31
2022-09-10T07:15:49.406Z,95736.38
2022-09-10T07:18:16.636Z,95736.38
2022-09-10T07:20:45.340Z,95732.16
2022-09-10T07:23:18.275Z,95743.28
2022-09-10T07:25:47.376Z,95746.72
2022-09-10T07:28:43.902Z,95750.91
2022-09-10T07:31:18.678Z,95752.53
2022-09-10T07:33:47.462Z,95752.59
2022-09-10T07:36:15.102Z,95757.22
2022-09-10T07:38:42.252Z,95754.78
2022-09-10T07:41:12.201Z,95758.94
2022-09-10T07:43:40.508Z,95764.19
2022-09-10T07:46:11.675Z,95766.03
2022-09-10T07:48:39.651Z,95764.78
2022-09-10T07:51:08.736Z,95773.81
2022-09-10T07:53:35.759Z,95775.22
2022-09-10T07:56:06.964Z,95774.19
2022-09-10T07:58:37.236Z,95773.16
2022-09-10T08:01:14.331Z,95770.63
2022-09-10T08:03:41.647Z,95771.28
2022-09-10T08:06:10.630Z,95780.09
2022-09-10T08:08:40.085Z,95774.19
2022-09-10T08:11:13.997Z,95773.50
2022-09-10T08:13:47.194Z,95776.38
2022-09-10T08:16:20.489Z,95771.13
2022-09-10T08:18:48.724Z,95785.91
2022-09-10T08:21:17.789Z,95778.53
2022-09-10T08:23:59.348Z,95780.06
2022-09-10T08:26:27.844Z,95785.25
2022-09-10T08:28:58.091Z,95787.19
2022-09-10T08:31:26.556Z,95789.81
2022-09-10T08:34:04.437Z,95788.25
2022-09-10T08:36:33.691Z,95796.59
2022-09-10T08:39:05.125Z,95793.44
2022-09-10T08:41:38.410Z,95794.13
2022-09-10T08:44:09.822Z,95795.16
2022-09-10T08:46:53.412Z,95800.47
2022-09-10T08:49:34.588Z,95802.31
2022-09-10T08:52:30.053Z,95805.19
2022-09-10T08:55:19.101Z,95810.75
2022-09-10T08:57:56.048Z,95809.38
2022-09-10T09:00:36.721Z,95805.28
2022-09-10T09:03:29.287Z,95807.72
2022-09-10T09:06:01.558Z,95797.56
2022-09-10T09:08:36.521Z,95798.31
2022-09-10T09:11:49.825Z,95804.13
2022-09-10T09:14:47.130Z,95804.13
2022-09-10T09:17:35.305Z,95795.81
2022-09-10T09:20:15.236Z,95805.47
2022-09-10T09:22:49.597Z,95804.28
2022-09-10T09:25:24.735Z,95798.06
2022-09-10T09:27:57.736Z,95795.97
2022-09-10T09:30:49.307Z,95804.09
2022-09-10T09:33:22.574Z,95806.56
2022-09-10T09:35:59.011Z,95801.00
2022-09-10T09:38:37.477Z,95798.81
2022-09-10T09:41:37.064Z,95803.16
2022-09-10T09:44:26.767Z,95801.25
2022-09-10T09:46:53.423Z,95797.56
2022-09-10T09:49:20.136Z,95801.63
2022-09-10T09:51:48.729Z,95798.56
2022-09-10T09:54:56.773Z,95795.50
2022-09-10T09:57:16.081Z,95794.94
2022-09-10T09:59:43.540Z,95792.09
2022-09-10T10:02:12.413Z,95799.59
2022-09-10T10:04:42.438Z,95794.00
2022-09-10T10:07:09.507Z,95781.41
2022-09-10T10:09:42.944Z,95784.78
2022-09-10T10:12:20.197Z,95789.03
2022-09-10T10:14:46.963Z,95783.09
2022-09-10T10:17:25.552Z,95786.28
2022-09-10T10:20:00.818Z,95793.78
2022-09-10T10:22:32.263Z,95787.81
2022-09-10T10:25:01.188Z,95787.22
2022-09-10T10:27:32.662Z,95785.44
2022-09-10T10:30:17.350Z,95776.81
2022-09-10T10:32:57.987Z,95764.41
2022-09-10T10:35:47.479Z,95765.69
2022-09-10T10:38:13.959Z,95773.00
2022-09-10T10:41:29.708Z,95766.00
2022-09-10T10:44:17.644Z,95777.47
2022-09-10T10:47:19.911Z,95779.09
2022-09-10T10:49:54.588Z,95786.88
2022-09-10T10:52:54.433Z,95779.34
2022-09-10T10:55:27.463Z,95778.50
2022-09-10T10:58:23.592Z,95781.91
2022-09-10T11:01:23.640Z,95781.22
2022-09-10T11:04:18.427Z,95786.50
2022-09-10T11:06:49.137Z,95774.25
2022-09-10T11:09:26.926Z,95763.19
2022-09-10T11:11:53.451Z,95767.91
2022-09-10T11:14:28.294Z,95762.44
2022-09-10T11:17:14.896Z,95769.03
2022-09-10T11:20:27.329Z,95763.16
2022-09-10T11:22:59.205Z,95766.16
2022-09-10T11:25:30.675Z,95773.59
2022-09-10T11:28:06.888Z,95771.38
2022-09-10T11:30:34.884Z,95764.88
2022-09-10T11:33:11.260Z,95764.41
2022-09-10T11:35:45.540Z,95769.69
2022-09-10T11:38:37.852Z,95765.28
2022-09-10T11:41:07.113Z,95762.41
2022-09-10T11:44:12.699Z,95769.75
2022-09-10T11:46:50.142Z,95769.22
2022-09-10T11:49:30.999Z,95774.94
2022-09-10T11:51:57.550Z,95774.47
2022-09-10T11:54:30.877Z,95783.72
2022-09-10T11:57:33.916Z,95781.78
2022-09-10T12:00:07.215Z,95786.59
2022-09-10T12:02:46.957Z,95777.50
2022-09-10T12:05:39.451Z,95777.69
2022-09-10T12:08:17.613Z,95774.66
2022-09-10T12:11:06.190Z,95769.22
2022-09-10T12:13:39.281Z,95771.31
2022-09-10T12:16:20.340Z,95768.84
2022-09-10T12:18:51.246Z,95775.34
2022-09-10T12:21:39.640Z,95772.25
2022-09-10T12:24:50.229Z,95773.19
2022-09-10T12:27:19.186Z,95773.75
2022-09-10T12:29:45.853Z,95791.84
2022-09-10T12:32:25.828Z,95775.75
2022-09-10T12:35:34.572Z,95763.25
2022-09-10T12:38:41.694Z,95756.88
2022-09-10T12:41:34.137Z,95761.28
2022-09-10T12:44:24.848Z,95759.25
2022-09-10T12:47:13.461Z,95762.81
2022-09-10T12:50:03.065Z,95761.47
2022-09-10T12:52:47.211Z,95762.44
2022-09-10T12:55:51.131Z,95751.06
2022-09-10T12:58:28.162Z,95762.41
2022-09-10T13:00:54.668Z,95770.84
2022-09-10T13:03:23.962Z,95768.31
2022-09-10T13:05:54.171Z,95771.88
2022-09-10T13:08:34.106Z,95778.06
2022-09-10T13:11:01.282Z,95768.91
2022-09-10T13:13:39.704Z,95772.75
2022-09-10T13:16:13.889Z,95756.78
2022-09-10T13:18:41.875Z,95762.25
2022-09-10T13:21:23.752Z,95766.56
2022-09-10T13:23:54.172Z,95763.38
2022-09-10T13:26:33.982Z,95759.63
2022-09-10T13:29:09.131Z,95752.09
2022-09-10T13:31:42.107Z,95756.22
2022-09-10T13:34:40.751Z,95755.09
2022-09-10T13:37:47.556Z,95757.53
2022-09-10T13:40:21.862Z,95754.34
2022-09-10T13:43:10.061Z,95742.13
2022-09-10T13:45:41.599Z,95747.97
2022-09-10T13:48:37.943Z,95735.00
2022-09-10T13:51:17.056Z,95735.94
2022-09-10T13:53:46.932Z,95738.16
2022-09-10T13:56:19.711Z,95746.44
2022-09-10T13:59:00.499Z,95737.13
2022-09-10T14:01:53.737Z,95734.41
2022-09-10T14:04:31.761Z,95725.72
2022-09-10T14:07:05.456Z,95730.25
2022-09-10T14:09:33.293Z,95732.03
2022-09-10T14:12:04.589Z,95728.94
2022-09-10T14:14:37.264Z,95737.94
2022-09-10T14:17:34.396Z,95734.31
2022-09-10T14:20:17.924Z,95726.13
2022-09-10T14:22:45.056Z,95727.41
2022-09-10T14:25:31.122Z,95733.97
2022-09-10T14:28:15.694Z,95733.00
2022-09-10T14:30:47.813Z,95733.69
2022-09-10T14:33:31.385Z,95731.97
2022-09-10T14:36:12.320Z,95730.53
2022-09-10T14:38:41.095Z,95737.25
2022-09-10T14:41:24.592Z,95737.97
2022-09-10T14:44:22.845Z,95740.16
2022-09-10T14:46:57.448Z,95739.78
2022-09-10T14:49:28.386Z,95747.78
2022-09-10T14:51:57.125Z,95743.19
2022-09-10T14:54:24.544Z,95748.63
2022-09-10T14:56:51.873Z,95746.09
2022-09-10T14:59:31.541Z,95741.09
2022-09-10T15:02:00.607Z,95738.84
2022-09-10T15:04:29.927Z,95734.44
2022-09-10T15:06:58.837Z,95739.50
2022-09-10T15:09:27.708Z,95742.22
2022-09-10T15:12:05.770Z,95744.56
2022-09-10T15:14:33.642Z,95746.72
2022-09-10T15:17:00.283Z,95743.91
2022-09-10T15:19:28.028Z,95747.31
2022-09-10T15:21:54.699Z,95748.50
2022-09-10T15:24:23.339Z,95737.97
2022-09-10T15:26:53.536Z,95745.03
2022-09-10T15:29:20.224Z,95744.44
2022-09-10T15:31:47.021Z,95746.66
2022-09-10T15:34:14.278Z,95745.56
2022-09-10T15:36:41.504Z,95739.06
2022-09-10T15:39:11.827Z,95742.28
2022-09-10T15:41:43.544Z,95748.69
2022-09-10T15:44:10.855Z,95741.94
2022-09-10T15:46:41.351Z,95744.03
2022-09-10T15:49:08.263Z,95743.19
2022-09-10T15:51:34.792Z,95734.84
2022-09-10T15:54:04.888Z,95746.38
2022-09-10T15:56:32.589Z,95754.75
2022-09-10T15:58:59.588Z,95756.66
2022-09-10T16:01:28.745Z,95756.97
2022-09-10T16:03:57.534Z,95750.88
2022-09-10T16:06:27.295Z,95752.34
2022-09-10T16:09:01.864Z,95751.53
2022-09-10T16:11:32.775Z,95738.66
2022-09-10T16:14:04.739Z,95744.78
2022-09-10T16:16:32.417Z,95744.41
2022-09-10T16:19:00.383Z,95739.09
2022-09-10T16:21:32.115Z,95739.53
2022-09-10T16:24:00.566Z,95746.84
2022-09-10T16:26:34.497Z,95742.53
2022-09-10T16:29:03.746Z,95755.50
2022-09-10T16:31:32.700Z,95751.34
2022-09-10T16:34:05.200Z,95759.25
2022-09-10T16:36:34.155Z,95755.84
2022-09-10T16:39:01.791Z,95765.94
2022-09-10T16:41:28.908Z,95766.94
2022-09-10T16:43:58.258Z,95769.38
2022-09-10T16:46:26.224Z,95769.66
2022-09-10T16:48:54.295Z,95769.56
2022-09-10T16:51:25.860Z,95758.22
2022-09-10T16:54:02.375Z,95761.66
2022-09-10T16:56:33.588Z,95758.09
2022-09-10T16:59:00.207Z,95763.53
2022-09-10T17:01:26.819Z,95767.13
2022-09-10T17:03:53.907Z,95770.03
2022-09-10T17:06:27.298Z,95768.81
2022-09-10T17:08:57.082Z,95771.88
2022-09-10T17:11:28.491Z,95772.31
2022-09-10T17:13:56.963Z,95773.19
2022-09-10T17:16:32.520Z,95777.53
2022-09-10T17:19:07.033Z,95780.50
2022-09-10T17:21:34.987Z,95784.69
2022-09-10T17:24:02.839Z,95780.59
2022-09-10T17:26:31.373Z,95791.41
2022-09-10T17:29:08.551Z,95798.50
2022-09-10T17:31:37.227Z,95801.06
2022-09-10T17:34:06.608Z,95800.28
2022-09-10T17:36:34.663Z,95802.28
2022-09-10T17:39:03.644Z,95799.75
2022-09-10T17:41:31.067Z,95809.91
2022-09-10T17:44:01.541Z,95810.22
2022-09-10T17:46:31.026Z,95808.19
2022-09-10T17:49:00.016Z,95811.75
2022-09-10T17:51:29.561Z,95814.81
2022-09-10T17:53:57.123Z,95810.25
2022-09-10T17:56:26.112Z,95818.63
2022-09-10T17:59:03.833Z,95823.81
2022-09-10T18:01:41.644Z,95826.88
2022-09-10T18:04:12.514Z,95829.59
2022-09-10T18:06:39.771Z,95819.91
2022-09-10T18:09:07.794Z,95815.34
2022-09-10T18:11:40.031Z,95827.22
2022-09-10T18:14:07.169Z,95823.41
2022-09-10T18:16:36.585Z,95828.66
2022-09-10T18:19:14.941Z,95826.72
2022-09-10T18:21:44.978Z,95829.84
2022-09-10T18:24:17.122Z,95827.91
2022-09-10T18:26:46.407Z,95835.59
2022-09-10T18:29:21.554Z,95838.19
2022-09-10T18:31:51.020Z,95848.91
2022-09-10T18:34:23.240Z,95838.03
2022-09-10T18:36:54.161Z,95842.63
2022-09-10T18:39:21.931Z,95835.34
2022-09-10T18:41:48.493Z,95843.31
2022-09-10T18:44:18.044Z,95847.06
2022-09-10T18:46:46.831Z,95849.59
2022-09-10T18:49:19.097Z,95856.19
2022-09-10T18:51:47.677Z,95859.50
2022-09-10T18:54:16.079Z,95861.53
2022-09-10T18:56:44.941Z,95863.56
2022-09-10T18:59:15.109Z,95873.63
2022-09-10T19:01:43.470Z,95875.03
2022-09-10T19:04:13.121Z,95877.00
2022-09-10T19:06:43.147Z,95881.56
2022-09-10T19:09:11.876Z,95888.69
2022-09-10T19:11:43.687Z,95887.69
2022-09-10T19:14:19.135Z,95890.25
2022-09-10T19:16:47.271Z,95894.41
2022-09-10T19:19:18.442Z,95885.03
2022-09-10T19:21:46.035Z,95888.13
2022-09-10T19:24:12.900Z,95897.09
2022-09-10T19:26:39.509Z,95892.28
2022-09-10T19:29:06.868Z,95891.25
2022-09-10T19:31:35.076Z,95893.94
2022-09-10T19:34:04.500Z,95889.28
2022-09-10T19:36:34.573Z,95891.28
2022-09-10T19:39:04.766Z,95895.84
2022-09-10T19:41:31.593Z,95890.41
2022-09-10T19:43:58.114Z,95887.00
2022-09-10T19:46:28.303Z,95887.59
2022-09-10T19:48:58.298Z,95896.19
2022-09-10T19:51:29.167Z,95894.44
2022-09-10T19:53:56.203Z,95893.63
2022-09-10T19:56:28.824Z,95891.78
2022-09-10T19:58:56.170Z,95898.72
2022-09-10T20:01:26.232Z,95897.22
2022-09-10T20:03:54.319Z,95891.94
2022-09-10T20:06:25.317Z,95890.00
2022-09-10T20:08:52.562Z,95888.25
2022-09-10T20:11:21.868Z,95884.88
2022-09-10T20:13:50.012Z,95890.69
2022-09-10T20:16:17.177Z,95892.03
2022-09-10T20:18:43.773Z,95894.28
2022-09-10T20:21:25.521Z,95894.34
2022-09-10T20:23:55.814Z,95893.66
2022-09-10T20:26:25.570Z,95890.19
2022-09-10T20:28:55.560Z,95897.34
2022-09-10T20:31:23.497Z,95898.34
2022-09-10T20:33:58.133Z,95891.66
2022-09-10T20:36:26.070Z,95893.81
2022-09-10T20:38:53.600Z,95893.94
2022-09-10T20:41:20.768Z,95893.19
2022-09-10T20:43:51.852Z,95889.44
2022-09-10T20:46:20.560Z,95893.09
2022-09-10T20:48:49.419Z,95895.50
2022-09-10T20:51:17.945Z,95890.88
2022-09-10T20:53:44.883Z,95895.59
2022-09-10T20:56:14.091Z,95903.13
2022-09-10T20:58:41.489Z,95893.47
2022-09-10T21:01:20.272Z,95902.59
2022-09-10T21:03:48.726Z,95899.88
2022-09-10T21:06:19.255Z,95901.22
2022-09-10T21:08:47.586Z,95897.19
2022-09-10T21:11:17.829Z,95908.47
2022-09-10T21:13:53.300Z,95909.06
2022-09-10T21:16:23.100Z,95907.41
2022-09-10T21:18:54.733Z,95905.47
2022-09-10T21:21:25.316Z,95909.69
2022-09-10T21:23:54.204Z,95906.91
2022-09-10T21:26:23.276Z,95905.47
2022-09-10T21:28:52.855Z,95908.00
2022-09-10T21:31:19.487Z,95902.75
2022-09-10T21:33:46.088Z,95895.91
2022-09-10T21:36:15.612Z,95905.69
2022-09-10T21:38:46.324Z,95904.53
2022-09-10T21:41:15.920Z,95901.59
2022-09-10T21:43:44.729Z,95899.06
2022-09-10T21:46:13.408Z,95903.03
2022-09-10T21:48:42.321Z,95900.88
2022-09-10T21:51:14.495Z,95903.97
2022-09-10T21:53:42.722Z,95895.78
2022-09-10T21:56:12.540Z,95897.50
2022-09-10T21:58:39.908Z,95901.78
2022-09-10T22:01:14.288Z,95901.81
2022-09-10T22:03:41.044Z,95910.50
2022-09-10T22:06:10.603Z,95902.50
2022-09-10T22:08:38.896Z,95912.38
2022-09-10T22:11:16.164Z,95919.09
2022-09-10T22:13:43.780Z,95909.34
2022-09-10T22:16:12.461Z,95916.31
2022-09-10T22:18:39.849Z,95917.31
2022-09-10T22:21:06.822Z,95916.91
2022-09-10T22:23:38.610Z,95920.81
2022-09-10T22:26:10.965Z,95924.59
2022-09-10T22:28:38.342Z,95921.66
2022-09-10T22:31:17.138Z,95919.25
2022-09-10T22:33:45.950Z,95924.41
2022-09-10T22:36:21.024Z,95919.38
2022-09-10T22:39:01.805Z,95929.66
2022-09-10T22:41:31.465Z,95930.19
2022-09-10T22:43:58.199Z,95930.97
2022-09-10T22:46:24.885Z,95923.59
2022-09-10T22:48:51.519Z,95927.78
2022-09-10T22:51:23.675Z,95933.63
2022-09-10T22:53:51.980Z,95932.75
2022-09-10T22:56:22.085Z,95925.53
2022-09-10T22:58:52.732Z,95936.66
2022-09-10T23:01:22.661Z,95933.84
2022-09-10T23:03:49.813Z,95938.66
2022-09-10T23:06:24.460Z,95944.75
2022-09-10T23:08:54.044Z,95942.25
2022-09-10T23:11:24.602Z,95941.25
2022-09-10T23:13:54.192Z,95935.53
2022-09-10T23:16:22.437Z,95937.56
2022-09-10T23:18:54.716Z,95944.66
2022-09-10T23:21:23.907Z,95935.03
2022-09-10T23:23:52.760Z,95943.56
2022-09-10T23:26:19.843Z,95939.16
2022-09-10T23:28:46.635Z,95943.38
2022-09-10T23:31:17.377Z,95949.34
2022-09-10T23:33:46.643Z,95944.44
2022-09-10T23:36:14.328Z,95940.97
2022-09-10T23:38:42.546Z,95937.91
2022-09-10T23:41:10.954Z,95936.91
2022-09-10T23:43:38.174Z,95938.78
2022-09-10T23:46:05.498Z,95934.47
2022-09-10T23:48:32.130Z,95933.91
2022-09-10T23:50:58.911Z,95939.41
2022-09-10T23:53:25.412Z,95947.47
2022-09-10T23:55:52.258Z,95949.53
2022-09-10T23:58:19.776Z,95937.66
